createdAt,value
2018-07-12T00:01:13.358Z,99726.51
2018-07-12T00:03:39.726Z,99730.08
2018-07-12T00:06:06.067Z,99726.23
2018-07-12T00:08:32.437Z,99733.62
2018-07-12T00:10:58.784Z,99734.06
2018-07-12T00:13:25.183Z,99736.00
2018-07-12T00:15:51.879Z,99735.65
2018-07-12T00:18:18.219Z,99733.84
2018-07-12T00:20:44.723Z,99731.34
2018-07-12T00:23:11.059Z,99729.93
2018-07-12T00:25:37.378Z,99728.61
2018-07-12T00:28:03.721Z,99722.59
2018-07-12T00:30:30.057Z,99720.36
2018-07-12T00:32:56.681Z,99716.57
2018-07-12T00:35:23.109Z,99720.92
2018-07-12T00:37:49.653Z,99733.98
2018-07-12T00:40:16.215Z,99735.33
2018-07-12T00:42:43.165Z,99724.36
2018-07-12T00:45:09.535Z,99720.78
2018-07-12T00:47:35.899Z,99712.58
2018-07-12T00:50:02.295Z,99711.95
2018-07-12T00:52:28.689Z,99708.73
2018-07-12T00:54:55.166Z,99714.11
2018-07-12T00:57:21.582Z,99716.92
2018-07-12T00:59:47.970Z,99722.90
2018-07-12T01:02:14.328Z,99718.47
2018-07-12T01:04:40.729Z,99708.05
2018-07-12T01:07:07.129Z,99724.48
2018-07-12T01:09:33.522Z,99724.89
2018-07-12T01:12:00.598Z,99722.98
2018-07-12T01:14:26.960Z,99727.91
2018-07-12T01:16:53.400Z,99729.69
2018-07-12T01:19:19.722Z,99726.52
2018-07-12T01:21:46.085Z,99725.86
2018-07-12T01:24:12.487Z,99731.94
2018-07-12T01:26:38.829Z,99729.64
2018-07-12T01:29:05.159Z,99726.80
2018-07-12T01:31:31.503Z,99729.61
2018-07-12T01:33:57.857Z,99732.31
2018-07-12T01:36:24.243Z,99738.59
2018-07-12T01:38:50.649Z,99742.71
2018-07-12T01:41:17.489Z,99739.66
2018-07-12T01:43:44.278Z,99749.17
2018-07-12T01:46:10.621Z,99746.92
2018-07-12T01:48:37.137Z,99743.24
2018-07-12T01:51:03.498Z,99742.72
2018-07-12T01:53:29.893Z,99735.38
2018-07-12T01:55:56.266Z,99732.73
2018-07-12T01:58:22.674Z,99729.44
2018-07-12T02:00:49.069Z,99731.23
2018-07-12T02:03:15.782Z,99717.30
2018-07-12T02:05:42.380Z,99716.80
2018-07-12T02:08:08.899Z,99716.05
2018-07-12T02:10:35.281Z,99717.09
2018-07-12T02:13:01.612Z,99709.39
2018-07-12T02:15:28.330Z,99712.80
2018-07-12T02:17:54.847Z,99713.91
2018-07-12T02:20:21.231Z,99717.86
2018-07-12T02:22:47.578Z,99724.97
2018-07-12T02:25:13.916Z,99723.09
2018-07-12T02:27:40.260Z,99724.02
2018-07-12T02:30:06.581Z,99713.62
2018-07-12T02:32:32.943Z,99712.86
2018-07-12T02:34:59.331Z,99711.71
2018-07-12T02:37:25.635Z,99711.59
2018-07-12T02:39:51.993Z,99714.88
2018-07-12T02:42:18.861Z,99717.02
2018-07-12T02:44:45.240Z,99721.66
2018-07-12T02:47:11.594Z,99719.92
2018-07-12T02:49:37.933Z,99724.23
2018-07-12T02:52:04.304Z,99723.95
2018-07-12T02:54:30.698Z,99722.72
2018-07-12T02:56:57.203Z,99725.91
2018-07-12T02:59:23.674Z,99727.02
2018-07-12T03:01:50.068Z,99720.13
2018-07-12T03:04:16.494Z,99725.27
2018-07-12T03:06:42.908Z,99720.21
2018-07-12T03:09:09.286Z,99716.23
2018-07-12T03:11:36.185Z,99727.61
2018-07-12T03:14:02.961Z,99727.42
2018-07-12T03:16:29.373Z,99727.48
2018-07-12T03:18:55.726Z,99723.51
2018-07-12T03:21:22.074Z,99726.05
2018-07-12T03:23:48.508Z,99723.48
2018-07-12T03:26:15.432Z,99716.06
2018-07-12T03:28:41.836Z,99700.12
2018-07-12T03:31:08.252Z,99717.66
2018-07-12T03:33:34.675Z,99717.42
2018-07-12T03:36:01.145Z,99718.60
2018-07-12T03:38:27.649Z,99719.83
2018-07-12T03:40:54.015Z,99729.58
2018-07-12T03:43:20.422Z,99717.88
2018-07-12T03:45:46.824Z,99718.56
2018-07-12T03:48:13.163Z,99717.13
2018-07-12T03:50:39.613Z,99718.83
2018-07-12T03:53:06.093Z,99720.02
2018-07-12T03:55:32.418Z,99720.64
2018-07-12T03:57:58.826Z,99724.50
2018-07-12T04:00:25.308Z,99724.56
2018-07-12T04:02:51.728Z,99729.53
2018-07-12T04:05:19.265Z,99736.38
2018-07-12T04:07:45.696Z,99739.47
2018-07-12T04:10:12.067Z,99747.97
2018-07-12T04:12:38.703Z,99746.97
2018-07-12T04:15:05.035Z,99744.45
2018-07-12T04:17:32.462Z,99737.08
2018-07-12T04:20:00.050Z,99725.92
2018-07-12T04:22:27.722Z,99722.90
2018-07-12T04:24:54.113Z,99722.35
2018-07-12T04:27:21.090Z,99715.84
2018-07-12T04:29:48.544Z,99714.32
2018-07-12T04:32:15.318Z,99703.23
2018-07-12T04:34:43.664Z,99705.72
2018-07-12T04:37:09.989Z,99702.86
2018-07-12T04:39:36.287Z,99701.72
2018-07-12T04:42:02.848Z,99710.65
2018-07-12T04:44:29.237Z,99703.97
2018-07-12T04:46:55.584Z,99702.99
2018-07-12T04:49:22.203Z,99698.53
2018-07-12T04:51:49.843Z,99696.64
2018-07-12T04:54:16.315Z,99695.55
2018-07-12T04:56:42.661Z,99686.28
2018-07-12T04:59:09.011Z,99684.05
2018-07-12T05:01:35.386Z,99686.30
2018-07-12T05:04:01.786Z,99600.17
2018-07-12T05:06:28.553Z,99684.75
2018-07-12T05:08:54.922Z,99692.05
2018-07-12T05:11:22.130Z,99690.20
2018-07-12T05:13:48.566Z,99699.87
2018-07-12T05:16:15.034Z,99705.99
2018-07-12T05:18:41.383Z,99703.97
2018-07-12T05:21:07.777Z,99709.38
2018-07-12T05:23:34.178Z,99703.47
2018-07-12T05:26:00.486Z,99708.11
2018-07-12T05:28:26.845Z,99704.44
2018-07-12T05:30:53.202Z,99707.30
2018-07-12T05:33:19.529Z,99716.14
2018-07-12T05:35:47.186Z,99710.77
2018-07-12T05:38:14.837Z,99715.66
2018-07-12T05:40:42.677Z,99724.20
2018-07-12T05:43:10.453Z,99722.09
2018-07-12T05:45:38.307Z,99718.80
2018-07-12T05:48:06.075Z,99723.73
2018-07-12T05:50:34.465Z,99716.30
2018-07-12T05:53:02.170Z,99715.33
2018-07-12T05:55:29.882Z,99712.65
2018-07-12T05:57:57.756Z,99718.84
2018-07-12T06:00:26.344Z,99710.92
2018-07-12T06:02:54.123Z,99723.27
2018-07-12T06:05:21.904Z,99711.49
2018-07-12T06:07:49.820Z,99714.16
2018-07-12T06:10:17.634Z,99711.79
2018-07-12T06:12:45.343Z,99708.05
2018-07-12T06:15:13.153Z,99716.80
2018-07-12T06:17:40.947Z,99718.63
2018-07-12T06:20:09.464Z,99723.52
2018-07-12T06:22:37.275Z,99717.77
2018-07-12T06:25:05.320Z,99714.30
2018-07-12T06:27:33.076Z,99718.16
2018-07-12T06:30:00.965Z,99721.06
2018-07-12T06:32:28.674Z,99712.92
2018-07-12T06:34:56.560Z,99716.25
2018-07-12T06:37:24.474Z,99715.20
2018-07-12T06:39:52.224Z,99713.69
2018-07-12T06:42:19.971Z,99716.25
2018-07-12T06:44:47.686Z,99715.95
2018-07-12T06:47:15.416Z,99720.27
2018-07-12T06:49:43.145Z,99721.78
2018-07-12T06:52:10.904Z,99728.86
2018-07-12T06:54:38.577Z,99731.34
2018-07-12T06:57:06.345Z,99726.17
2018-07-12T06:59:34.066Z,99725.49
2018-07-12T07:02:01.689Z,99724.54
2018-07-12T07:04:29.401Z,99726.38
2018-07-12T07:06:57.613Z,99724.93
2018-07-12T07:09:25.329Z,99718.97
2018-07-12T07:11:52.980Z,99711.66
2018-07-12T07:14:20.614Z,99711.97
2018-07-12T07:16:48.253Z,99707.78
2018-07-12T07:19:16.011Z,99696.94
2018-07-12T07:21:43.753Z,99695.38
2018-07-12T07:24:11.545Z,99695.90
2018-07-12T07:26:39.269Z,99697.77
2018-07-12T07:29:06.969Z,99701.92
2018-07-12T07:31:34.723Z,99699.22
2018-07-12T07:34:02.427Z,99707.30
2018-07-12T07:36:30.184Z,99703.19
2018-07-12T07:38:57.837Z,99694.29
2018-07-12T07:41:25.564Z,99708.25
2018-07-12T07:43:53.494Z,99707.12
2018-07-12T07:46:21.321Z,99708.42
2018-07-12T07:48:48.970Z,99712.33
2018-07-12T07:51:16.675Z,99717.77
2018-07-12T07:53:44.423Z,99715.45
2018-07-12T07:56:12.206Z,99712.23
2018-07-12T07:58:40.035Z,99711.05
2018-07-12T08:01:07.816Z,99709.25
2018-07-12T08:03:35.556Z,99722.05
2018-07-12T08:06:03.250Z,99719.09
2018-07-12T08:08:31.017Z,99716.11
2018-07-12T08:10:58.783Z,99711.60
2018-07-12T08:13:26.615Z,99716.84
2018-07-12T08:15:54.323Z,99721.66
2018-07-12T08:18:22.066Z,99722.47
2018-07-12T08:20:49.840Z,99716.77
2018-07-12T08:23:17.565Z,99714.75
2018-07-12T08:25:45.254Z,99712.73
2018-07-12T08:28:23.556Z,99714.12
2018-07-12T08:30:51.316Z,99710.14
2018-07-12T08:33:19.015Z,99706.67
2018-07-12T08:35:46.868Z,99699.72
2018-07-12T08:38:17.859Z,99695.94
2018-07-12T08:40:45.777Z,99691.34
2018-07-12T08:43:13.441Z,99691.20
2018-07-12T08:45:41.292Z,99689.67
2018-07-12T08:48:09.148Z,99684.42
2018-07-12T08:50:36.832Z,99672.43
2018-07-12T08:53:04.707Z,99668.22
2018-07-12T08:55:32.377Z,99668.07
2018-07-12T08:58:00.126Z,99664.86
2018-07-12T09:00:27.909Z,99662.77
2018-07-12T09:02:55.673Z,99655.52
2018-07-12T09:05:23.421Z,99667.48
2018-07-12T09:07:51.132Z,99662.67
2018-07-12T09:10:18.923Z,99654.62
2018-07-12T09:12:46.707Z,99663.93
2018-07-12T09:15:14.645Z,99647.19
2018-07-12T09:17:42.589Z,99651.95
2018-07-12T09:20:10.374Z,99640.23
2018-07-12T09:22:38.317Z,99637.29
2018-07-12T09:25:06.081Z,99635.85
2018-07-12T09:27:33.843Z,99650.27
2018-07-12T09:30:01.912Z,99644.55
2018-07-12T09:32:29.584Z,99666.34
2018-07-12T09:34:57.340Z,99644.24
2018-07-12T09:37:25.049Z,99630.48
2018-07-12T09:39:52.765Z,99634.16
2018-07-12T09:42:20.513Z,99645.99
2018-07-12T09:44:48.242Z,99654.20
2018-07-12T09:47:15.910Z,99666.73
2018-07-12T09:49:43.640Z,99647.64
2018-07-12T09:52:17.029Z,99651.61
2018-07-12T09:54:44.760Z,99626.24
2018-07-12T09:57:29.762Z,99632.42
2018-07-12T09:59:57.498Z,99632.25
2018-07-12T10:02:31.091Z,99630.33
2018-07-12T10:04:58.783Z,99630.60
2018-07-12T10:07:31.290Z,99620.36
2018-07-12T10:09:59.067Z,99639.02
2018-07-12T10:12:32.522Z,99623.28
2018-07-12T10:15:06.035Z,99625.64
2018-07-12T10:17:36.683Z,99631.24
2018-07-12T10:20:05.163Z,99632.42
2018-07-12T10:22:33.143Z,99634.95
2018-07-12T10:25:00.857Z,99628.72
2018-07-12T10:27:28.723Z,99651.46
2018-07-12T10:29:56.484Z,99633.22
2018-07-12T10:32:24.265Z,99636.69
2018-07-12T10:34:52.023Z,99593.96
2018-07-12T10:37:19.771Z,99627.56
2018-07-12T10:39:47.659Z,99628.73
2018-07-12T10:42:15.626Z,99626.24
2018-07-12T10:44:43.857Z,99620.37
2018-07-12T10:47:11.660Z,99612.88
2018-07-12T10:49:39.430Z,99615.84
2018-07-12T10:52:07.332Z,99617.57
2018-07-12T10:54:35.129Z,99622.00
2018-07-12T10:57:02.928Z,99615.62
2018-07-12T10:59:30.664Z,99618.80
2018-07-12T11:01:58.354Z,99620.00
2018-07-12T11:04:26.174Z,99605.31
2018-07-12T11:06:53.956Z,99620.30
2018-07-12T11:09:21.955Z,99621.59
2018-07-12T11:11:49.836Z,99628.67
2018-07-12T11:14:17.819Z,99616.86
2018-07-12T11:16:45.777Z,99618.39
2018-07-12T11:19:13.699Z,99605.95
2018-07-12T11:21:41.411Z,99624.55
2018-07-12T11:24:09.097Z,99621.30
2018-07-12T11:26:36.821Z,99619.37
2018-07-12T11:29:04.631Z,99613.45
2018-07-12T11:31:32.403Z,99614.13
2018-07-12T11:34:00.083Z,99634.50
2018-07-12T11:36:27.686Z,99626.03
2018-07-12T11:38:55.343Z,99618.59
2018-07-12T11:41:23.038Z,99622.91
2018-07-12T11:44:02.414Z,99634.97
2018-07-12T11:46:30.077Z,99631.52
2018-07-12T11:48:57.808Z,99628.69
2018-07-12T11:51:25.590Z,99632.19
2018-07-12T11:53:54.553Z,99623.73
2018-07-12T11:56:22.234Z,99636.80
2018-07-12T11:58:49.914Z,99633.34
2018-07-12T12:01:17.692Z,99634.00
2018-07-12T12:03:45.337Z,99637.14
2018-07-12T12:06:12.945Z,99632.33
2018-07-12T12:08:40.597Z,99636.63
2018-07-12T12:11:08.394Z,99658.98
2018-07-12T12:13:36.034Z,99642.44
2018-07-12T12:16:03.710Z,99667.95
2018-07-12T12:18:31.496Z,99662.10
2018-07-12T12:20:59.209Z,99655.50
2018-07-12T12:23:26.939Z,99655.04
2018-07-12T12:25:54.639Z,99612.78
2018-07-12T12:28:22.324Z,99655.42
2018-07-12T12:30:49.971Z,99602.14
2018-07-12T12:33:17.678Z,99664.98
2018-07-12T12:35:45.339Z,99668.10
2018-07-12T12:38:13.123Z,99665.75
2018-07-12T12:40:40.851Z,99681.38
2018-07-12T12:43:08.521Z,99669.14
2018-07-12T12:45:36.262Z,99677.17
2018-07-12T12:48:04.194Z,99674.78
2018-07-12T12:50:32.965Z,99701.27
2018-07-12T12:53:00.624Z,99690.00
2018-07-12T12:55:28.248Z,99687.52
2018-07-12T12:57:55.856Z,99703.73
2018-07-12T13:00:23.569Z,99703.09
2018-07-12T13:02:51.346Z,99715.12
2018-07-12T13:05:19.014Z,99706.38
2018-07-12T13:07:46.686Z,99710.22
2018-07-12T13:10:14.405Z,99715.04
2018-07-12T13:12:42.100Z,99711.06
2018-07-12T13:15:09.834Z,99716.44
2018-07-12T13:17:37.604Z,99714.67
2018-07-12T13:20:05.397Z,99716.44
2018-07-12T13:22:33.135Z,99715.81
2018-07-12T13:25:00.926Z,99704.75
2018-07-12T13:27:28.568Z,99725.63
2018-07-12T13:29:56.130Z,99720.64
2018-07-12T13:32:23.781Z,99713.34
2018-07-12T13:34:51.555Z,99709.20
2018-07-12T13:37:19.326Z,99715.24
2018-07-12T13:39:46.947Z,99713.11
2018-07-12T13:42:14.669Z,99717.52
2018-07-12T13:44:42.355Z,99720.96
2018-07-12T13:47:10.087Z,99720.11
2018-07-12T13:49:38.113Z,99733.06
2018-07-12T13:52:06.345Z,99729.83
2018-07-12T13:54:34.100Z,99730.45
2018-07-12T13:57:01.843Z,99729.79
2018-07-12T13:59:29.573Z,99730.27
2018-07-12T14:01:57.339Z,99731.44
2018-07-12T14:04:25.096Z,99731.03
2018-07-12T14:06:52.921Z,99732.66
2018-07-12T14:09:20.582Z,99735.94
2018-07-12T14:11:48.434Z,99740.52
2018-07-12T14:14:16.254Z,99735.65
2018-07-12T14:16:43.884Z,99737.64
2018-07-12T14:19:11.606Z,99732.28
2018-07-12T14:21:39.406Z,99729.33
2018-07-12T14:24:07.165Z,99719.25
2018-07-12T14:26:34.937Z,99719.72
2018-07-12T14:29:02.712Z,99720.52
2018-07-12T14:31:30.411Z,99720.72
2018-07-12T14:33:58.107Z,99729.06
2018-07-12T14:36:25.780Z,99730.88
2018-07-12T14:41:20.695Z,99730.45
2018-07-12T14:43:48.385Z,99733.59
2018-07-12T14:46:16.040Z,99751.03
2018-07-12T14:48:43.695Z,99731.81
2018-07-12T14:51:11.558Z,99733.17
2018-07-12T14:53:39.200Z,99733.55
2018-07-12T14:56:06.955Z,99741.70
2018-07-12T14:58:34.784Z,99745.27
2018-07-12T15:01:02.611Z,99750.37
2018-07-12T15:03:30.349Z,99748.40
2018-07-12T15:05:58.081Z,99757.81
2018-07-12T15:08:25.758Z,99746.98
2018-07-12T15:10:53.572Z,99755.16
2018-07-12T15:13:21.436Z,99744.70
2018-07-12T15:15:49.316Z,99751.66
2018-07-12T15:18:17.062Z,99750.14
2018-07-12T15:20:44.765Z,99754.47
2018-07-12T15:23:12.539Z,99749.63
2018-07-12T15:25:40.834Z,99755.78
2018-07-12T15:28:08.570Z,99760.02
2018-07-12T15:30:36.323Z,99758.65
2018-07-12T15:33:04.390Z,99773.71
2018-07-12T15:35:32.122Z,99763.45
2018-07-12T15:37:59.854Z,99761.27
2018-07-12T15:40:27.577Z,99762.38
2018-07-12T15:42:55.377Z,99756.05
2018-07-12T15:45:23.106Z,99763.41
2018-07-12T15:47:50.928Z,99759.48
2018-07-12T15:50:22.110Z,99762.21
2018-07-12T15:52:49.900Z,99757.11
2018-07-12T15:55:17.550Z,99766.00
2018-07-12T15:57:45.357Z,99756.44
2018-07-12T16:00:13.039Z,99771.81
2018-07-12T16:02:40.766Z,99764.62
2018-07-12T16:05:08.475Z,99764.13
2018-07-12T16:07:36.253Z,99763.09
2018-07-12T16:10:04.009Z,99759.80
2018-07-12T16:12:31.719Z,99769.68
2018-07-12T16:14:59.523Z,99769.47
2018-07-12T16:17:27.246Z,99764.64
2018-07-12T16:19:55.186Z,99762.26
2018-07-12T16:22:22.875Z,99768.49
2018-07-12T16:24:50.672Z,99771.48
2018-07-12T16:27:18.544Z,99774.22
2018-07-12T16:29:46.418Z,99768.28
2018-07-12T16:32:14.334Z,99769.62
2018-07-12T16:34:42.085Z,99771.47
2018-07-12T16:37:09.755Z,99772.17
2018-07-12T16:39:38.104Z,99770.33
2018-07-12T16:42:06.495Z,99764.92
2018-07-12T16:44:34.162Z,99761.83
2018-07-12T16:47:02.336Z,99765.31
2018-07-12T16:49:30.037Z,99758.84
2018-07-12T16:51:57.642Z,99765.14
2018-07-12T16:54:25.426Z,99756.67
2018-07-12T16:56:53.298Z,99770.97
2018-07-12T16:59:21.037Z,99768.37
2018-07-12T17:01:48.791Z,99757.61
2018-07-12T17:04:16.521Z,99758.00
2018-07-12T17:06:44.234Z,99758.26
2018-07-12T17:09:11.891Z,99756.34
2018-07-12T17:11:39.678Z,99758.69
2018-07-12T17:14:07.392Z,99758.69
2018-07-12T17:16:35.191Z,99763.98
2018-07-12T17:19:02.907Z,99759.27
2018-07-12T17:21:30.706Z,99757.66
2018-07-12T17:23:58.540Z,99770.23
2018-07-12T17:26:26.403Z,99766.34
2018-07-12T17:28:54.101Z,99760.32
2018-07-12T17:31:21.839Z,99754.76
2018-07-12T17:33:49.699Z,99763.18
2018-07-12T17:36:17.462Z,99768.91
2018-07-12T17:38:45.099Z,99763.27
2018-07-12T17:41:12.907Z,99763.95
2018-07-12T17:43:40.634Z,99764.89
2018-07-12T17:46:08.349Z,99761.91
2018-07-12T17:48:36.223Z,99762.79
2018-07-12T17:51:03.910Z,99760.49
2018-07-12T17:53:31.686Z,99759.34
2018-07-12T17:55:59.670Z,99762.42
2018-07-12T17:58:27.505Z,99767.31
2018-07-12T18:00:55.232Z,99759.62
2018-07-12T18:03:22.960Z,99763.42
2018-07-12T18:05:50.712Z,99763.70
2018-07-12T18:08:18.394Z,99759.93
2018-07-12T18:10:46.148Z,99763.72
2018-07-12T18:13:13.898Z,99761.89
2018-07-12T18:15:41.790Z,99763.92
2018-07-12T18:18:09.810Z,99765.14
2018-07-12T18:20:37.746Z,99764.16
2018-07-12T18:23:06.087Z,99767.38
2018-07-12T18:25:33.938Z,99762.22
2018-07-12T18:28:01.942Z,99773.84
2018-07-12T18:30:29.782Z,99771.59
2018-07-12T18:32:57.753Z,99767.38
2018-07-12T18:35:25.541Z,99765.20
2018-07-12T18:37:53.463Z,99775.25
2018-07-12T18:40:21.278Z,99775.17
2018-07-12T18:42:49.109Z,99778.13
2018-07-12T18:45:17.045Z,99784.29
2018-07-12T18:47:44.694Z,99784.62
2018-07-12T18:50:12.478Z,99791.00
2018-07-12T18:52:40.490Z,99789.22
2018-07-12T18:55:08.204Z,99794.11
2018-07-12T18:57:36.047Z,99801.15
2018-07-12T19:00:04.396Z,99802.48
2018-07-12T19:02:32.392Z,99811.30
2018-07-12T19:05:00.078Z,99809.67
2018-07-12T19:07:27.900Z,99811.29
2018-07-12T19:09:55.801Z,99821.06
2018-07-12T19:12:23.768Z,99812.18
2018-07-12T19:14:51.609Z,99807.06
2018-07-12T19:17:19.283Z,99822.64
2018-07-12T19:19:47.196Z,99819.48
2018-07-12T19:22:15.043Z,99824.53
2018-07-12T19:24:42.925Z,99830.88
2018-07-12T19:27:10.969Z,99830.31
2018-07-12T19:29:38.976Z,99838.36
2018-07-12T19:32:07.430Z,99855.54
2018-07-12T19:34:35.410Z,99854.54
2018-07-12T19:37:03.236Z,99863.02
2018-07-12T19:39:31.041Z,99863.61
2018-07-12T19:41:58.776Z,99859.20
2018-07-12T19:44:26.670Z,99851.05
2018-07-12T19:46:54.578Z,99854.02
2018-07-12T19:49:22.344Z,99859.94
2018-07-12T19:51:53.211Z,99860.66
2018-07-12T19:54:22.034Z,99857.59
2018-07-12T19:56:50.013Z,99861.00
2018-07-12T19:59:17.899Z,99866.16
2018-07-12T20:01:46.003Z,99864.33
2018-07-12T20:04:13.838Z,99862.76
2018-07-12T20:06:41.772Z,99860.82
2018-07-12T20:09:10.330Z,99870.09
2018-07-12T20:11:38.510Z,99863.87
2018-07-12T20:14:06.672Z,99861.10
2018-07-12T20:16:34.721Z,99866.54
2018-07-12T20:19:02.522Z,99860.59
2018-07-12T20:21:30.270Z,99865.02
2018-07-12T20:23:58.069Z,99859.73
2018-07-12T20:26:26.103Z,99861.11
2018-07-12T20:28:53.811Z,99862.77
2018-07-12T20:31:21.588Z,99864.10
2018-07-12T20:33:49.690Z,99867.23
2018-07-12T20:36:17.566Z,99868.52
2018-07-12T20:38:45.336Z,99866.19
2018-07-12T20:41:13.073Z,99871.75
2018-07-12T20:43:40.804Z,99870.55
2018-07-12T20:46:08.485Z,99871.89
2018-07-12T20:48:36.326Z,99873.67
2018-07-12T20:51:04.163Z,99875.12
2018-07-12T20:53:31.879Z,99868.42
2018-07-12T20:55:59.546Z,99868.64
2018-07-12T20:58:27.256Z,99869.63
2018-07-12T21:00:55.015Z,99874.41
2018-07-12T21:03:22.653Z,99870.09
2018-07-12T21:05:50.331Z,99873.78
2018-07-12T21:08:18.016Z,99874.78
2018-07-12T21:10:45.683Z,99871.50
2018-07-12T21:13:13.337Z,99871.89
2018-07-12T21:15:41.023Z,99874.13
2018-07-12T21:18:08.809Z,99872.63
2018-07-12T21:20:36.446Z,99876.78
2018-07-12T21:23:04.509Z,99866.77
2018-07-12T21:25:32.314Z,99867.67
2018-07-12T21:27:59.994Z,99869.84
2018-07-12T21:30:27.700Z,99866.39
2018-07-12T21:32:55.426Z,99867.72
2018-07-12T21:35:23.034Z,99864.10
2018-07-12T21:37:50.866Z,99856.95
2018-07-12T21:40:18.533Z,99862.23
2018-07-12T21:42:46.235Z,99859.03
2018-07-12T21:45:13.918Z,99857.08
2018-07-12T21:47:41.629Z,99862.27
2018-07-12T21:50:09.288Z,99861.94
2018-07-12T21:52:37.082Z,99858.66
2018-07-12T21:55:04.862Z,99863.48
2018-07-12T21:57:32.569Z,99814.13
2018-07-12T22:00:00.374Z,99854.20
2018-07-12T22:02:28.186Z,99863.98
2018-07-12T22:04:55.889Z,99856.08
2018-07-12T22:08:16.548Z,99855.42
2018-07-12T22:10:45.263Z,99853.63
2018-07-12T22:13:13.713Z,99854.92
2018-07-12T22:15:41.421Z,99859.61
2018-07-12T22:18:09.575Z,99855.42
2018-07-12T22:20:37.325Z,99859.14
2018-07-12T22:23:05.003Z,99856.55
2018-07-12T22:25:32.865Z,99858.67
2018-07-12T22:28:00.610Z,99853.78
2018-07-12T22:30:29.030Z,99857.38
2018-07-12T22:32:57.513Z,99854.89
2018-07-12T22:35:25.296Z,99867.71
2018-07-12T22:37:52.992Z,99869.26
2018-07-12T22:40:20.830Z,99875.09
2018-07-12T22:42:48.543Z,99879.45
2018-07-12T22:45:16.358Z,99878.63
2018-07-12T22:47:44.080Z,99880.78
2018-07-12T22:50:11.826Z,99876.32
2018-07-12T22:52:39.592Z,99882.45
2018-07-12T22:55:07.337Z,99883.49
2018-07-12T22:57:35.056Z,99875.84
2018-07-12T23:00:02.813Z,99879.77
2018-07-12T23:02:30.559Z,99876.95
2018-07-12T23:04:58.347Z,99882.11
2018-07-12T23:07:26.079Z,99880.61
2018-07-12T23:09:54.077Z,99875.33
2018-07-12T23:12:21.819Z,99873.14
2018-07-12T23:14:49.519Z,99875.47
2018-07-12T23:17:17.353Z,99873.38
2018-07-12T23:19:45.179Z,99876.86
2018-07-12T23:22:12.956Z,99878.80
2018-07-12T23:24:40.802Z,99876.50
2018-07-12T23:27:08.507Z,99875.84
2018-07-12T23:29:36.183Z,99875.17
2018-07-12T23:32:03.904Z,99879.50
2018-07-12T23:34:31.667Z,99873.36
2018-07-12T23:36:59.410Z,99872.55
2018-07-12T23:39:27.344Z,99874.55
2018-07-12T23:41:55.248Z,99871.53
2018-07-12T23:44:23.018Z,99874.72
2018-07-12T23:46:51.008Z,99873.22
2018-07-12T23:49:18.980Z,99877.88
2018-07-12T23:51:46.660Z,99874.05
2018-07-12T23:54:14.328Z,99879.20
2018-07-12T23:56:42.119Z,99878.71
2018-07-12T23:59:09.929Z,99880.84
